Time;durP1;ratioP1;P1;durP2;ratioP2;P2;SDS_P1;SDS_P2;PMS_P1;PMS_P2;Temp;Humidity;BMP_temperature;BMP_pressure;BME280_temperature;BME280_humidity;BME280_pressure;Samples;Min_cycle;Max_cycle;Signal;HPM_P1;HPM_P2
2022/08/06 00:00:20;;;;;;;7.90;2.50;;;;;;;11.76;100.00;102395.25;5206660;28;20300;-69
2022/08/06 00:02:52;;;;;;;9.07;2.40;;;;;;;11.71;100.00;102396.47;5205584;28;20565;-68
2022/08/06 00:05:23;;;;;;;6.25;2.40;;;;;;;11.58;98.97;102397.16;5203820;28;21088;-68
2022/08/06 00:07:56;;;;;;;6.80;2.33;;;;;;;11.54;99.63;102402.75;5205567;28;20057;-69
2022/08/06 00:10:29;;;;;;;6.97;2.33;;;;;;;11.51;98.99;102406.47;5203536;28;20032;-68
2022/08/06 00:13:00;;;;;;;7.95;2.60;;;;;;;11.47;98.39;102412.06;5204532;28;20061;-68
2022/08/06 00:15:33;;;;;;;6.28;2.50;;;;;;;11.42;98.85;102408.78;5203910;28;20091;-68
2022/08/06 00:18:04;;;;;;;9.18;2.70;;;;;;;11.39;99.88;102407.16;5208732;28;20114;-68
2022/08/06 00:20:36;;;;;;;8.23;3.22;;;;;;;11.37;100.00;102411.69;5206133;28;20026;-68
2022/08/06 00:23:07;;;;;;;9.18;2.80;;;;;;;11.38;100.00;102408.94;5215548;28;20067;-68
2022/08/06 00:25:38;;;;;;;5.38;2.45;;;;;;;11.26;100.00;102414.97;5223542;28;20479;-68
2022/08/06 00:28:10;;;;;;;7.47;2.72;;;;;;;11.38;100.00;102418.78;5210921;28;20113;-68
2022/08/06 00:30:41;;;;;;;7.60;2.75;;;;;;;11.46;100.00;102426.38;5204439;28;20060;-68
2022/08/06 00:33:13;;;;;;;11.68;3.25;;;;;;;11.26;100.00;102416.78;5198558;28;20145;-68
2022/08/06 00:35:44;;;;;;;10.90;3.53;;;;;;;11.38;100.00;102430.31;5220806;28;20023;-68
2022/08/06 00:38:15;;;;;;;6.80;2.83;;;;;;;11.32;100.00;102425.31;5204728;28;20052;-68
2022/08/06 00:40:48;;;;;;;6.82;2.88;;;;;;;11.25;100.00;102423.91;5219395;28;20049;-68
2022/08/06 00:43:19;;;;;;;11.23;3.20;;;;;;;11.29;100.00;102427.28;5204866;28;20037;-68
2022/08/06 00:45:51;;;;;;;9.55;3.10;;;;;;;11.18;100.00;102425.22;5207359;28;20044;-68
2022/08/06 00:48:22;;;;;;;8.65;3.22;;;;;;;11.12;100.00;102420.19;5238185;28;20033;-68
2022/08/06 00:50:53;;;;;;;7.57;3.40;;;;;;;11.13;100.00;102422.78;5200705;28;20065;-68
2022/08/06 00:53:25;;;;;;;9.02;3.28;;;;;;;11.15;100.00;102434.22;5203946;28;20042;-68
2022/08/06 00:55:56;;;;;;;10.25;4.15;;;;;;;11.10;100.00;102433.63;5196205;28;20037;-68
2022/08/06 00:58:28;;;;;;;8.73;3.05;;;;;;;11.09;100.00;102433.72;5211683;28;20037;-68
2022/08/06 01:00:59;;;;;;;8.30;3.60;;;;;;;11.14;100.00;102439.66;5212820;28;20078;-68
2022/08/06 01:03:30;;;;;;;7.97;3.08;;;;;;;11.02;100.00;102441.16;5203473;28;20030;-68
2022/08/06 01:06:03;;;;;;;7.68;3.42;;;;;;;10.99;100.00;102446.69;5202964;28;20194;-68
2022/08/06 01:08:34;;;;;;;7.90;3.28;;;;;;;11.01;100.00;102451.94;5203217;28;20033;-68
2022/08/06 01:11:05;;;;;;;7.70;4.35;;;;;;;10.93;100.00;102455.88;5207934;28;20036;-68
2022/08/06 01:13:37;;;;;;;6.78;3.67;;;;;;;10.93;100.00;102458.56;5201547;28;20037;-68
2022/08/06 01:16:30;;;;;;;8.52;3.22;;;;;;;10.84;100.00;102464.38;5203206;28;20102;-68
2022/08/06 01:19:39;;;;;;;8.60;3.90;;;;;;;10.90;100.00;102464.03;5213898;28;20034;-68
2022/08/06 01:22:37;;;;;;;13.32;4.45;;;;;;;10.84;100.00;102466.19;5201370;28;20675;-68
2022/08/06 01:25:31;;;;;;;7.63;3.30;;;;;;;10.76;100.00;102462.09;5217274;28;20037;-68
2022/08/06 01:28:14;;;;;;;8.60;3.45;;;;;;;10.77;100.00;102461.13;5205539;28;20034;-68
2022/08/06 01:30:57;;;;;;;7.65;3.65;;;;;;;10.70;100.00;102462.41;5200297;28;20088;-68
2022/08/06 01:34:05;;;;;;;8.68;3.60;;;;;;;10.81;100.00;102467.19;5207025;28;20037;-68
2022/08/06 01:36:42;;;;;;;8.50;3.75;;;;;;;10.70;100.00;102459.75;5204004;28;20050;-68
2022/08/06 01:39:16;;;;;;;8.35;3.50;;;;;;;10.69;100.00;102466.00;5226711;28;20027;-68
2022/08/06 01:41:52;;;;;;;9.05;3.60;;;;;;;10.67;100.00;102459.88;5198870;28;20109;-68
2022/08/06 01:44:30;;;;;;;12.18;3.80;;;;;;;10.67;100.00;102461.72;5207896;28;20049;-69
2022/08/06 01:47:07;;;;;;;10.55;3.88;;;;;;;10.60;100.00;102458.47;5207579;28;20061;-68
2022/08/06 01:49:42;;;;;;;6.22;3.92;;;;;;;10.79;100.00;102466.41;5205733;28;20115;-68
2022/08/06 01:52:15;;;;;;;7.40;3.97;;;;;;;10.60;100.00;102463.81;5199939;28;20118;-68
2022/08/06 01:54:50;;;;;;;10.23;3.95;;;;;;;10.61;100.00;102459.34;5219463;28;20034;-68
2022/08/06 01:57:23;;;;;;;9.30;3.92;;;;;;;10.54;100.00;102469.47;5206556;28;20041;-68
2022/08/06 01:59:56;;;;;;;7.57;3.78;;;;;;;10.50;100.00;102471.41;5221064;28;20018;-68
2022/08/06 02:02:29;;;;;;;8.40;4.07;;;;;;;10.51;100.00;102477.66;5216911;28;20038;-68
2022/08/06 02:05:01;;;;;;;7.22;3.67;;;;;;;10.45;100.00;102469.91;5215154;28;20079;-68
2022/08/06 02:07:39;;;;;;;9.38;3.92;;;;;;;10.45;100.00;102472.59;5208849;28;20037;-68
2022/08/06 02:10:13;;;;;;;10.25;3.80;;;;;;;10.49;100.00;102468.81;5205213;28;20458;-68
2022/08/06 02:12:47;;;;;;;13.07;4.38;;;;;;;10.53;100.00;102475.75;5202765;28;20033;-69
2022/08/06 02:15:28;;;;;;;7.60;3.70;;;;;;;10.44;100.00;102476.22;5200612;28;20239;-68
2022/08/06 02:18:04;;;;;;;8.13;3.90;;;;;;;10.43;100.00;102470.00;5207796;28;20060;-68
2022/08/06 02:20:41;;;;;;;7.32;3.75;;;;;;;10.57;100.00;102469.31;5200524;28;20395;-68
2022/08/06 02:23:18;;;;;;;8.63;4.22;;;;;;;10.50;100.00;102476.75;5206653;28;20083;-68
2022/08/06 02:25:52;;;;;;;10.13;4.18;;;;;;;10.33;100.00;102472.25;5208709;28;20058;-68
2022/08/06 02:28:27;;;;;;;8.65;3.92;;;;;;;10.30;100.00;102464.41;5202461;28;20032;-69
2022/08/06 02:30:59;;;;;;;9.57;4.00;;;;;;;10.30;100.00;102479.53;5213039;28;20493;-68
2022/08/06 02:33:31;;;;;;;8.70;4.43;;;;;;;10.44;100.00;102481.56;5200068;28;20510;-68
2022/08/06 02:36:05;;;;;;;6.70;4.13;;;;;;;10.34;100.00;102475.81;5231153;28;20112;-68
2022/08/06 02:38:40;;;;;;;;;;;;;;;10.38;100.00;102472.03;5207350;28;20562;-68
2022/08/06 02:41:20;;;;;;;7.22;4.45;;;;;;;10.38;100.00;102472.03;5209325;28;19925;-68
2022/08/06 02:44:02;;;;;;;9.27;4.35;;;;;;;10.25;100.00;102477.06;5208712;28;20026;-68
2022/08/06 02:46:43;;;;;;;10.90;4.78;;;;;;;10.28;100.00;102471.59;5205649;28;20480;-68
2022/08/06 02:49:24;;;;;;;6.50;4.95;;;;;;;10.39;100.00;102473.75;5212603;28;20111;-68
2022/08/06 02:52:03;;;;;;;11.32;4.88;;;;;;;10.46;100.00;102475.19;5236995;28;20030;-68
2022/08/06 02:54:38;;;;;;;9.45;4.90;;;;;;;10.31;100.00;102476.81;5209289;28;20479;-68
2022/08/06 02:57:27;;;;;;;10.95;4.95;;;;;;;10.31;100.00;102470.59;5196295;28;20042;-68
2022/08/06 03:00:03;;;;;;;6.97;4.47;;;;;;;10.14;100.00;102469.63;5211645;28;20037;-68
2022/08/06 03:02:39;;;;;;;9.32;4.60;;;;;;;10.16;100.00;102478.41;5207378;28;20082;-68
2022/08/06 03:05:15;;;;;;;9.55;4.65;;;;;;;10.11;100.00;102480.41;5223492;28;20031;-68
2022/08/06 03:07:51;;;;;;;9.30;4.40;;;;;;;10.07;100.00;102470.84;5213335;28;20482;-68
2022/08/06 03:10:25;;;;;;;7.35;4.30;;;;;;;10.07;100.00;102489.50;5220130;28;20353;-68
2022/08/06 03:12:57;;;;;;;;;;;;;;;10.15;100.00;102486.47;5204378;28;20040;-68
2022/08/06 03:15:29;;;;;;;7.35;4.57;;;;;;;10.01;100.00;102481.81;5200988;28;19917;-68
2022/08/06 03:18:03;;;;;;;7.45;4.60;;;;;;;9.93;100.00;102484.84;5204666;28;20376;-68
2022/08/06 03:20:36;;;;;;;7.78;4.75;;;;;;;9.95;100.00;102490.06;5228446;28;20022;-68
2022/08/06 03:23:11;;;;;;;10.02;5.15;;;;;;;10.00;100.00;102488.91;5206866;28;20408;-68
2022/08/06 03:25:43;;;;;;;9.75;5.43;;;;;;;10.10;100.00;102489.34;5206998;28;20063;-68
2022/08/06 03:28:16;;;;;;;10.68;5.35;;;;;;;10.13;100.00;102488.34;5217398;28;20380;-68
2022/08/06 03:30:48;;;;;;;10.48;4.82;;;;;;;10.03;100.00;102498.59;5200805;28;20041;-68
2022/08/06 03:33:20;;;;;;;12.55;5.03;;;;;;;10.10;100.00;102499.16;5222005;28;20030;-68
2022/08/06 03:35:54;;;;;;;11.60;5.57;;;;;;;10.18;100.00;102500.53;5232824;28;20131;-68
2022/08/06 03:38:26;;;;;;;9.13;5.18;;;;;;;10.19;100.00;102504.91;5204044;28;21424;-68
2022/08/06 03:40:59;;;;;;;8.82;4.93;;;;;;;10.11;100.00;102501.75;5213173;28;20400;-68
2022/08/06 03:43:30;;;;;;;9.75;4.60;;;;;;;10.09;100.00;102508.13;5217404;28;20049;-68
2022/08/06 03:46:05;;;;;;;10.25;4.68;;;;;;;10.07;100.00;102504.63;5210771;28;20133;-68
2022/08/06 03:48:42;;;;;;;8.07;4.75;;;;;;;10.15;100.00;102507.81;5213217;28;20026;-68
2022/08/06 03:51:22;;;;;;;9.55;4.47;;;;;;;10.10;100.00;102504.50;5207428;28;20030;-68
2022/08/06 03:53:56;;;;;;;8.70;4.43;;;;;;;10.20;100.00;102505.75;5225721;27;20029;-68
2022/08/06 03:56:29;;;;;;;6.55;4.03;;;;;;;10.18;100.00;102513.88;5204536;28;20029;-68
2022/08/06 03:59:04;;;;;;;7.93;3.88;;;;;;;10.00;100.00;102515.59;5211819;28;20117;-68
2022/08/06 04:01:40;;;;;;;6.13;4.20;;;;;;;9.96;100.00;102511.34;5205398;28;20078;-68
2022/08/06 04:04:14;;;;;;;8.27;4.15;;;;;;;9.94;100.00;102525.69;5205521;28;20771;-68
2022/08/06 04:06:47;;;;;;;9.25;4.15;;;;;;;9.84;100.00;102521.72;5217660;28;20056;-68
2022/08/06 04:09:19;;;;;;;7.15;3.85;;;;;;;9.74;100.00;102524.81;5208665;28;20041;-68
2022/08/06 04:11:51;;;;;;;8.63;4.22;;;;;;;9.79;100.00;102527.25;5205573;28;20418;-68
2022/08/06 04:14:23;;;;;;;8.13;4.15;;;;;;;9.71;100.00;102530.28;5203086;28;20022;-68
2022/08/06 04:16:55;;;;;;;6.43;4.25;;;;;;;9.91;100.00;102534.69;5203564;28;20471;-68
2022/08/06 04:19:29;;;;;;;9.15;4.35;;;;;;;9.74;100.00;102531.94;5202467;28;20034;-68
2022/08/06 04:22:01;;;;;;;8.57;4.65;;;;;;;9.71;100.00;102532.94;5203723;28;20030;-68
2022/08/06 04:24:32;;;;;;;8.20;3.65;;;;;;;9.69;100.00;102536.63;5205296;28;20437;-68
2022/08/06 04:27:06;;;;;;;7.15;4.38;;;;;;;9.65;100.00;102540.38;5207823;28;20033;-68
2022/08/06 04:29:39;;;;;;;8.23;4.35;;;;;;;9.65;100.00;102538.56;5206079;28;20041;-68
2022/08/06 04:32:13;;;;;;;10.50;4.80;;;;;;;9.64;100.00;102544.81;5202825;28;20115;-68
2022/08/06 04:34:46;;;;;;;9.30;4.32;;;;;;;9.76;100.00;102546.06;5202912;28;20507;-68
2022/08/06 04:37:18;;;;;;;11.15;5.05;;;;;;;9.80;100.00;102540.53;5205888;28;20026;-67
2022/08/06 04:39:50;;;;;;;9.40;4.97;;;;;;;9.73;100.00;102547.06;5201627;28;20518;-69
2022/08/06 04:42:24;;;;;;;8.90;5.25;;;;;;;9.71;100.00;102540.94;5205874;28;20033;-68
2022/08/06 04:44:55;;;;;;;11.10;5.60;;;;;;;9.83;100.00;102542.19;5200366;28;20025;-69
2022/08/06 04:47:31;;;;;;;8.10;5.53;;;;;;;9.74;100.00;102547.94;5206759;28;20506;-68
2022/08/06 04:50:02;;;;;;;11.15;5.00;;;;;;;9.71;100.00;102546.28;5199647;28;20037;-69
2022/08/06 04:52:34;;;;;;;10.82;4.97;;;;;;;9.78;100.00;102547.72;5201444;28;20463;-68
2022/08/06 04:55:06;;;;;;;8.55;4.78;;;;;;;9.69;100.00;102556.16;5206994;28;20138;-68
2022/08/06 04:57:37;;;;;;;10.90;5.63;;;;;;;9.79;100.00;102553.91;5209728;28;20617;-68
2022/08/06 05:00:09;;;;;;;11.68;5.22;;;;;;;9.71;100.00;102559.59;5202164;28;20046;-69
2022/08/06 05:02:44;;;;;;;9.63;5.10;;;;;;;9.75;100.00;102563.84;5205532;28;20034;-69
2022/08/06 05:05:16;;;;;;;8.65;5.35;;;;;;;9.77;100.00;102561.13;5207224;28;20034;-69
2022/08/06 05:07:50;;;;;;;9.15;5.00;;;;;;;9.76;100.00;102565.59;5203485;28;20026;-69
2022/08/06 05:10:23;;;;;;;8.25;5.05;;;;;;;9.81;100.00;102557.38;5210776;28;20093;-69
2022/08/06 05:12:56;;;;;;;7.68;4.78;;;;;;;9.83;100.00;102558.16;5222419;28;20033;-69
2022/08/06 05:15:51;;;;;;;7.78;4.78;;;;;;;9.89;100.00;102563.22;5202401;28;20046;-67
2022/08/06 05:18:34;;;;;;;8.68;5.30;;;;;;;9.97;100.00;102571.75;5205476;28;20100;-67
2022/08/06 05:21:08;;;;;;;9.57;5.65;;;;;;;10.13;100.00;102571.03;5204986;28;20037;-67
2022/08/06 05:23:43;;;;;;;8.75;5.28;;;;;;;10.06;100.00;102573.09;5208402;28;20026;-67
2022/08/06 05:26:16;;;;;;;10.82;5.88;;;;;;;10.10;100.00;102580.03;5207066;28;20446;-67
2022/08/06 05:28:47;;;;;;;11.02;5.35;;;;;;;10.12;100.00;102582.63;5208202;28;20064;-67
2022/08/06 05:31:29;;;;;;;10.20;5.63;;;;;;;10.25;100.00;102588.25;5202673;28;20066;-67
2022/08/06 05:34:02;;;;;;;7.93;5.47;;;;;;;10.22;100.00;102586.63;5200994;28;20042;-67
2022/08/06 05:36:34;;;;;;;10.27;6.10;;;;;;;10.29;100.00;102589.84;5207177;28;20034;-67
2022/08/06 05:39:06;;;;;;;13.63;5.65;;;;;;;10.33;100.00;102581.63;5206065;28;20026;-67
2022/08/06 05:41:37;;;;;;;16.73;6.75;;;;;;;10.46;100.00;102589.94;5200768;28;20045;-67
2022/08/06 05:44:08;;;;;;;15.65;6.05;;;;;;;10.53;100.00;102583.38;5209726;28;20574;-67
2022/08/06 05:47:14;;;;;;;13.50;6.07;;;;;;;10.61;100.00;102588.34;5204173;28;20021;-67
2022/08/06 05:49:52;;;;;;;14.10;5.45;;;;;;;10.78;100.00;102588.38;5203847;28;20460;-67
2022/08/06 05:52:28;;;;;;;11.93;5.35;;;;;;;10.89;100.00;102600.31;5203197;28;20369;-67
2022/08/06 05:55:11;;;;;;;11.70;5.30;;;;;;;10.96;100.00;102586.56;5204039;28;20032;-67
2022/08/06 05:57:53;;;;;;;13.70;4.93;;;;;;;11.11;100.00;102590.28;5203537;28;20026;-67
2022/08/06 06:00:26;;;;;;;11.52;5.13;;;;;;;11.17;100.00;102589.97;5201666;28;20531;-67
2022/08/06 06:03:01;;;;;;;10.95;4.70;;;;;;;11.28;100.00;102592.09;5204625;28;20488;-67
2022/08/06 06:05:34;;;;;;;11.75;5.63;;;;;;;11.36;100.00;102610.41;5200984;28;20025;-67
2022/08/06 06:08:08;;;;;;;16.58;6.15;;;;;;;11.46;100.00;102603.63;5200359;28;20125;-67
2022/08/06 06:10:40;;;;;;;13.07;5.38;;;;;;;11.55;100.00;102604.97;5199992;28;21219;-68
2022/08/06 06:13:13;;;;;;;11.63;4.88;;;;;;;11.60;100.00;102605.56;5202759;28;20122;-68
2022/08/06 06:15:51;;;;;;;8.77;4.85;;;;;;;11.67;100.00;102603.47;5206220;28;20064;-68
2022/08/06 06:18:22;;;;;;;10.00;4.78;;;;;;;11.70;100.00;102603.31;5203428;28;20109;-68
2022/08/06 06:21:23;;;;;;;12.00;4.80;;;;;;;11.81;100.00;102608.06;5206076;28;20550;-68
2022/08/06 06:24:06;;;;;;;8.27;4.78;;;;;;;11.92;100.00;102606.56;5221851;28;20048;-68
2022/08/06 06:26:55;;;;;;;12.15;5.00;;;;;;;12.00;100.00;102607.97;5201335;28;20360;-70
2022/08/06 06:29:40;;;;;;;9.50;4.75;;;;;;;12.03;100.00;102607.81;5204727;28;20037;-68
2022/08/06 06:32:18;;;;;;;13.80;4.97;;;;;;;12.20;100.00;102610.44;5217247;28;20030;-68
2022/08/06 06:35:21;;;;;;;12.05;5.20;;;;;;;12.30;100.00;102610.78;5203897;28;20390;-69
2022/08/06 06:38:40;;;;;;;9.68;4.38;;;;;;;12.48;100.00;102616.91;5204390;28;20557;-68
2022/08/06 06:41:32;;;;;;;10.48;4.10;;;;;;;12.61;100.00;102617.94;5215238;28;20054;-68
2022/08/06 06:44:18;;;;;;;10.95;4.10;;;;;;;12.86;100.00;102619.22;5208164;28;20041;-69
2022/08/06 06:46:56;;;;;;;9.95;4.22;;;;;;;12.99;100.00;102614.88;5204860;28;20171;-69
2022/08/06 06:49:37;;;;;;;9.23;3.88;;;;;;;13.12;100.00;102621.25;5203242;28;20159;-69
2022/08/06 06:52:16;;;;;;;14.00;3.60;;;;;;;13.29;100.00;102620.25;5202284;28;20029;-69
2022/08/06 06:55:09;;;;;;;7.85;3.05;;;;;;;13.49;100.00;102624.44;5204458;28;20061;-69
2022/08/06 06:57:47;;;;;;;8.13;3.03;;;;;;;13.70;100.00;102622.28;5204132;28;20025;-68
2022/08/06 07:00:19;;;;;;;7.57;2.40;;;;;;;13.86;100.00;102624.88;5202584;28;20033;-69
2022/08/06 07:02:52;;;;;;;8.32;2.65;;;;;;;14.21;100.00;102623.63;5205246;28;20028;-69
2022/08/06 07:05:25;;;;;;;9.57;1.80;;;;;;;14.28;97.77;102619.59;5204088;28;20022;-70
2022/08/06 07:07:59;;;;;;;6.88;1.65;;;;;;;14.41;95.57;102625.91;5204042;28;20159;-70
2022/08/06 07:10:31;;;;;;;4.82;1.48;;;;;;;14.59;93.57;102617.63;5200402;28;20045;-69
2022/08/06 07:13:05;;;;;;;3.65;1.35;;;;;;;14.73;93.83;102619.41;5207448;28;20068;-70
2022/08/06 07:15:37;;;;;;;8.05;2.50;;;;;;;14.85;92.13;102624.00;5201746;28;20120;-69
2022/08/06 07:18:10;;;;;;;5.50;1.42;;;;;;;14.96;90.98;102626.84;5206787;28;20483;-70
2022/08/06 07:20:43;;;;;;;4.85;1.35;;;;;;;15.13;88.46;102627.50;5199747;28;20025;-70
2022/08/06 07:23:15;;;;;;;3.92;0.95;;;;;;;15.15;88.06;102630.97;5208917;28;20116;-70
2022/08/06 07:25:49;;;;;;;4.95;0.90;;;;;;;15.39;86.29;102645.44;5205744;28;20033;-69
2022/08/06 07:28:25;;;;;;;5.10;1.00;;;;;;;15.37;85.72;102642.00;5206779;28;20112;-70
2022/08/06 07:30:59;;;;;;;3.90;0.77;;;;;;;15.46;86.61;102636.00;5201856;28;20200;-70
2022/08/06 07:33:31;;;;;;;;;;;;;;;15.46;87.57;102648.59;5207912;28;20547;-70
2022/08/06 07:36:03;;;;;;;3.40;0.85;;;;;;;15.56;82.02;102649.66;5202059;28;21255;-70
2022/08/06 07:38:36;;;;;;;4.28;0.95;;;;;;;15.73;82.38;102651.22;5223397;28;20033;-70
2022/08/06 07:41:10;;;;;;;5.85;1.23;;;;;;;15.86;82.23;102652.09;5204265;28;20079;-70
2022/08/06 07:43:48;;;;;;;6.20;1.40;;;;;;;15.92;81.44;102648.13;5208483;28;20030;-68
2022/08/06 07:46:28;;;;;;;4.78;1.05;;;;;;;15.90;81.70;102643.78;5206217;28;20038;-69
2022/08/06 07:49:06;;;;;;;5.65;1.10;;;;;;;15.93;81.14;102649.81;5201208;28;20045;-69
2022/08/06 07:51:44;;;;;;;5.15;0.82;;;;;;;16.09;80.57;102657.69;5208240;28;20490;-69
2022/08/06 07:54:15;;;;;;;5.07;1.02;;;;;;;16.24;79.88;102655.72;5210497;28;20030;-69
2022/08/06 07:56:48;;;;;;;4.30;0.90;;;;;;;16.35;79.22;102655.81;5208934;28;20444;-68
2022/08/06 07:59:20;;;;;;;4.88;0.90;;;;;;;16.26;76.63;102670.81;5207519;28;20044;-68
2022/08/06 08:01:52;;;;;;;8.30;1.73;;;;;;;16.31;76.19;102666.94;5208181;28;20063;-69
2022/08/06 08:07:14;;;;;;;7.00;1.33;;;;;;;16.43;79.06;102668.72;5208623;28;20037;-69
2022/08/06 08:09:47;;;;;;;4.75;0.98;;;;;;;16.46;79.11;102663.13;5212067;28;20137;-69
2022/08/06 08:12:20;;;;;;;4.30;0.63;;;;;;;16.63;77.32;102665.44;5207632;28;20026;-69
2022/08/06 08:14:51;;;;;;;4.28;0.95;;;;;;;16.71;77.29;102666.72;5206828;28;20059;-69
2022/08/06 08:17:23;;;;;;;3.80;0.77;;;;;;;16.86;75.05;102665.63;5209960;28;20026;-69
2022/08/06 08:19:54;;;;;;;3.15;0.63;;;;;;;16.80;73.00;102672.28;5210113;28;20561;-69
2022/08/06 08:22:25;;;;;;;2.88;0.88;;;;;;;16.90;71.93;102677.91;5211021;28;20061;-68
2022/08/06 08:24:57;;;;;;;2.55;0.60;;;;;;;16.92;71.36;102670.56;5209560;28;20095;-70
2022/08/06 08:27:28;;;;;;;3.83;0.82;;;;;;;16.98;71.37;102674.63;5207248;28;20032;-69
2022/08/06 08:29:59;;;;;;;4.60;0.77;;;;;;;17.07;72.43;102667.66;5204337;28;20037;-69
2022/08/06 08:32:31;;;;;;;4.80;0.70;;;;;;;17.15;72.85;102668.81;5207099;28;20040;-69
2022/08/06 08:35:02;;;;;;;5.38;0.93;;;;;;;17.16;73.27;102665.16;5207668;28;20045;-69
2022/08/06 08:37:34;;;;;;;4.30;0.80;;;;;;;17.29;72.16;102665.06;5209332;28;20174;-69
2022/08/06 08:40:05;;;;;;;4.35;0.88;;;;;;;17.32;69.33;102667.56;5207849;28;20839;-69
2022/08/06 08:42:42;;;;;;;3.22;0.68;;;;;;;17.53;69.84;102664.19;5206830;28;20494;-69
2022/08/06 08:45:16;;;;;;;3.83;0.80;;;;;;;17.43;69.55;102667.59;5205212;28;20057;-69
2022/08/06 08:47:50;;;;;;;5.33;0.70;;;;;;;17.69;68.99;102664.72;5209100;28;20053;-70
2022/08/06 08:50:27;;;;;;;4.03;0.68;;;;;;;17.69;68.91;102667.41;5209198;28;20338;-69
2022/08/06 08:53:31;;;;;;;3.45;1.00;;;;;;;18.03;69.83;102670.19;5203868;28;20038;-68
2022/08/06 08:56:04;;;;;;;3.08;0.60;;;;;;;18.19;64.79;102678.78;5209266;28;20026;-69
2022/08/06 08:58:37;;;;;;;3.78;0.80;;;;;;;17.99;64.37;102668.72;5202272;28;20030;-69
2022/08/06 09:01:09;;;;;;;3.97;0.52;;;;;;;18.00;60.79;102667.72;5206121;28;20022;-69
2022/08/06 09:03:41;;;;;;;4.45;0.90;;;;;;;17.92;61.91;102662.94;5204932;28;20501;-69
2022/08/06 09:06:12;;;;;;;2.70;0.60;;;;;;;18.06;61.77;102669.94;5207453;28;20045;-69
2022/08/06 09:08:46;;;;;;;3.13;0.40;;;;;;;18.02;60.88;102673.88;5204397;28;20511;-69
2022/08/06 09:11:18;;;;;;;4.57;0.90;;;;;;;18.12;64.56;102671.28;5202773;28;20673;-69
2022/08/06 09:13:49;;;;;;;4.15;0.90;;;;;;;18.08;62.55;102673.38;5204763;28;20029;-69
2022/08/06 09:16:21;;;;;;;3.20;0.55;;;;;;;18.16;61.80;102678.16;5207609;28;20537;-69
2022/08/06 09:18:53;;;;;;;3.65;0.60;;;;;;;18.02;60.65;102685.56;5208495;28;20071;-69
2022/08/06 09:21:24;;;;;;;3.67;0.50;;;;;;;17.98;61.77;102694.00;5207570;28;20785;-69
2022/08/06 09:23:56;;;;;;;2.70;0.50;;;;;;;18.05;61.51;102689.00;5207909;28;20026;-69
2022/08/06 09:26:27;;;;;;;2.67;0.77;;;;;;;18.14;61.41;102678.31;5205135;28;20032;-69
2022/08/06 09:28:59;;;;;;;2.90;0.57;;;;;;;18.27;60.62;102680.88;5208871;28;20046;-69
2022/08/06 09:31:35;;;;;;;4.03;0.55;;;;;;;18.45;63.01;102673.16;5207508;28;20040;-68
2022/08/06 09:34:07;;;;;;;4.43;1.05;;;;;;;18.69;61.03;102675.66;5206993;28;20082;-68
2022/08/06 09:36:43;;;;;;;4.35;0.77;;;;;;;18.75;59.32;102679.72;5206232;28;20030;-68
2022/08/06 09:39:14;;;;;;;4.53;0.50;;;;;;;19.02;59.84;102682.00;5208865;28;20038;-68
2022/08/06 09:41:47;;;;;;;2.50;0.50;;;;;;;19.14;58.95;102680.16;5207195;28;20045;-68
2022/08/06 09:44:19;;;;;;;3.33;0.63;;;;;;;19.09;59.06;102674.25;5202913;28;20029;-68
2022/08/06 09:46:50;;;;;;;4.28;0.70;;;;;;;19.37;57.70;102692.59;5205548;28;20342;-68
2022/08/06 09:49:22;;;;;;;3.50;0.70;;;;;;;19.30;56.31;102685.97;5204561;28;20068;-68
2022/08/06 09:52:17;;;;;;;2.92;0.50;;;;;;;19.32;56.43;102694.81;5211273;28;20037;-68
2022/08/06 09:54:49;;;;;;;3.90;0.60;;;;;;;19.05;53.44;102695.28;5237825;28;20424;-68
2022/08/06 09:57:23;;;;;;;2.15;0.60;;;;;;;18.88;54.54;102693.97;5236456;28;20120;-68
2022/08/06 09:59:54;;;;;;;2.53;0.70;;;;;;;18.83;55.57;102690.81;5209978;28;20037;-69
2022/08/06 10:02:25;;;;;;;4.55;0.70;;;;;;;18.86;57.04;102684.28;5210073;28;20030;-68
2022/08/06 10:05:14;;;;;;;4.00;0.85;;;;;;;19.07;56.95;102687.06;5210209;28;20041;-68
2022/08/06 10:07:47;;;;;;;2.47;0.52;;;;;;;19.12;55.49;102680.28;5206834;28;20040;-68
2022/08/06 10:10:37;;;;;;;4.25;0.65;;;;;;;19.30;55.08;102685.13;5229795;28;20087;-68
2022/08/06 10:13:15;;;;;;;3.53;0.80;;;;;;;19.10;51.29;102678.66;5208598;28;20091;-69
2022/08/06 10:15:50;;;;;;;2.90;0.60;;;;;;;19.30;52.16;102680.56;5213348;28;20032;-68
2022/08/06 10:18:37;;;;;;;2.03;0.50;;;;;;;19.42;52.09;102685.94;5212981;28;20037;-68
2022/08/06 10:21:17;;;;;;;2.90;0.82;;;;;;;19.34;50.22;102686.56;5212765;28;20060;-68
2022/08/06 10:23:52;;;;;;;2.10;0.50;;;;;;;19.39;50.58;102678.94;5209786;28;20040;-68
2022/08/06 10:26:32;;;;;;;1.80;0.55;;;;;;;19.46;51.76;102685.53;5210048;28;20487;-69
2022/08/06 10:29:06;;;;;;;2.47;0.63;;;;;;;19.50;51.88;102669.88;5213363;28;20037;-68
2022/08/06 10:31:38;;;;;;;2.42;0.43;;;;;;;19.32;52.10;102670.47;5205437;28;20058;-69
2022/08/06 10:34:15;;;;;;;2.03;0.32;;;;;;;19.59;51.14;102669.09;5207079;28;20546;-68
2022/08/06 10:36:54;;;;;;;3.45;0.38;;;;;;;19.55;51.96;102662.22;5204748;28;20030;-69
2022/08/06 10:39:28;;;;;;;2.55;0.55;;;;;;;19.59;48.33;102667.22;5213412;28;20109;-68
2022/08/06 10:42:00;;;;;;;4.22;0.52;;;;;;;19.68;49.27;102665.59;5204898;28;20061;-68
2022/08/06 10:44:34;;;;;;;3.85;0.40;;;;;;;19.92;48.62;102664.47;5209713;28;20036;-68
2022/08/06 10:47:06;;;;;;;2.47;0.50;;;;;;;20.00;48.88;102661.97;5210634;28;20111;-67
2022/08/06 10:49:38;;;;;;;2.78;0.50;;;;;;;19.95;49.56;102659.66;5212549;28;20087;-68
2022/08/06 10:52:11;;;;;;;2.03;0.30;;;;;;;20.15;48.36;102655.19;5207615;28;20808;-68
2022/08/06 10:54:43;;;;;;;3.92;0.68;;;;;;;20.00;50.24;102651.13;5210053;28;20030;-68
2022/08/06 10:57:15;;;;;;;2.05;0.30;;;;;;;20.10;47.35;102656.59;5215278;28;20033;-68
2022/08/06 10:59:47;;;;;;;1.65;0.30;;;;;;;20.04;47.83;102649.88;5211737;28;20041;-68
2022/08/06 11:02:40;;;;;;;1.90;0.40;;;;;;;20.23;48.59;102653.63;5210258;28;20063;-68
2022/08/06 11:05:15;;;;;;;1.92;0.40;;;;;;;20.15;48.50;102649.78;5209044;28;20122;-68
2022/08/06 11:07:58;;;;;;;2.47;0.50;;;;;;;20.29;47.96;102661.25;5211684;28;20041;-68
2022/08/06 11:10:41;;;;;;;3.13;0.40;;;;;;;20.42;51.63;102650.13;5218507;28;20037;-69
2022/08/06 11:13:23;;;;;;;1.80;0.50;;;;;;;20.59;48.10;102659.47;5208964;28;20034;-68
2022/08/06 11:15:55;;;;;;;3.10;0.50;;;;;;;20.61;47.47;102650.22;5206366;28;20132;-68
2022/08/06 11:18:26;;;;;;;2.70;0.45;;;;;;;20.58;45.07;102650.47;5208399;28;20034;-68
2022/08/06 11:21:01;;;;;;;2.20;0.30;;;;;;;20.42;42.88;102648.28;5202634;28;20056;-68
2022/08/06 11:23:33;;;;;;;1.30;0.30;;;;;;;20.45;43.94;102650.72;5207095;28;21642;-68
2022/08/06 11:26:06;;;;;;;3.60;0.60;;;;;;;20.60;45.93;102644.94;5204070;28;20026;-67
2022/08/06 11:28:37;;;;;;;2.00;0.40;;;;;;;20.50;46.29;102640.31;5211157;28;20034;-67
2022/08/06 11:31:30;;;;;;;3.60;0.70;;;;;;;20.54;48.22;102649.91;5205401;28;20065;-67
2022/08/06 11:34:09;;;;;;;2.17;0.43;;;;;;;20.56;46.46;102647.06;5208257;28;20296;-67
2022/08/06 11:36:46;;;;;;;2.58;0.55;;;;;;;20.66;44.03;102647.09;5210942;28;20040;-67
2022/08/06 11:39:20;;;;;;;1.98;0.40;;;;;;;20.72;44.29;102646.53;5208883;28;20034;-67
2022/08/06 11:41:57;;;;;;;2.17;0.45;;;;;;;20.62;42.99;102638.38;5207480;28;20026;-67
2022/08/06 11:44:32;;;;;;;2.05;0.45;;;;;;;20.36;43.11;102633.44;5227208;28;20442;-68
2022/08/06 11:47:12;;;;;;;3.78;0.40;;;;;;;20.47;42.94;102643.31;5203250;28;20124;-67
2022/08/06 11:49:48;;;;;;;2.00;0.40;;;;;;;20.60;44.16;102642.25;5206689;28;20472;-67
2022/08/06 11:52:31;;;;;;;2.28;0.35;;;;;;;20.60;44.75;102636.81;5201892;28;20029;-67
2022/08/06 11:55:06;;;;;;;2.38;0.40;;;;;;;20.64;44.67;102639.09;5207980;28;20039;-67
2022/08/06 11:57:40;;;;;;;3.53;0.43;;;;;;;20.80;45.05;102633.13;5204976;28;20112;-67
2022/08/06 12:00:14;;;;;;;3.10;0.57;;;;;;;20.61;44.49;102633.94;5209224;28;20032;-68
2022/08/06 12:02:50;;;;;;;1.60;0.30;;;;;;;20.51;42.88;102622.19;5219284;28;20055;-68